sensor_id;sensor_type;location;lat;lon;timestamp;temperature;humidity
48007;DHT22;33771;48.180;11.400;2022-12-20T00:00:26;-0.90;99.90
48007;DHT22;33771;48.180;11.400;2022-12-20T00:02:52;-0.90;99.90
48007;DHT22;33771;48.180;11.400;2022-12-20T00:05:17;-0.90;99.90
48007;DHT22;33771;48.180;11.400;2022-12-20T00:07:43;-0.90;99.90
48007;DHT22;33771;48.180;11.400;2022-12-20T00:10:09;-0.90;99.90
48007;DHT22;33771;48.180;11.400;2022-12-20T00:12:34;-0.90;99.90
48007;DHT22;33771;48.180;11.400;2022-12-20T00:15:00;-0.90;99.90
48007;DHT22;33771;48.180;11.400;2022-12-20T00:17:25;-1.00;99.90
48007;DHT22;33771;48.180;11.400;2022-12-20T00:19:51;-0.90;99.90
48007;DHT22;33771;48.180;11.400;2022-12-20T00:22:16;-0.90;99.90
48007;DHT22;33771;48.180;11.400;2022-12-20T00:24:42;-0.90;99.90
48007;DHT22;33771;48.180;11.400;2022-12-20T00:27:08;-0.90;99.90
48007;DHT22;33771;48.180;11.400;2022-12-20T00:29:34;-0.90;99.90
48007;DHT22;33771;48.180;11.400;2022-12-20T00:31:59;-0.90;99.90
48007;DHT22;33771;48.180;11.400;2022-12-20T00:34:25;-0.90;99.90
48007;DHT22;33771;48.180;11.400;2022-12-20T00:36:50;-0.90;99.90
48007;DHT22;33771;48.180;11.400;2022-12-20T00:39:16;-0.80;99.90
48007;DHT22;33771;48.180;11.400;2022-12-20T00:41:41;-0.80;99.90
48007;DHT22;33771;48.180;11.400;2022-12-20T00:44:07;-0.80;99.90
48007;DHT22;33771;48.180;11.400;2022-12-20T00:46:32;-0.80;99.90
48007;DHT22;33771;48.180;11.400;2022-12-20T00:48:59;-0.80;99.90
48007;DHT22;33771;48.180;11.400;2022-12-20T00:51:28;-0.80;99.90
48007;DHT22;33771;48.180;11.400;2022-12-20T00:53:54;-0.70;99.90
48007;DHT22;33771;48.180;11.400;2022-12-20T00:56:20;-0.80;99.90
48007;DHT22;33771;48.180;11.400;2022-12-20T00:58:46;-0.80;99.90
48007;DHT22;33771;48.180;11.400;2022-12-20T01:03:46;-0.70;99.90
48007;DHT22;33771;48.180;11.400;2022-12-20T01:06:12;-0.70;99.90
48007;DHT22;33771;48.180;11.400;2022-12-20T01:08:38;-0.70;99.90
48007;DHT22;33771;48.180;11.400;2022-12-20T01:11:16;-0.70;99.90
48007;DHT22;33771;48.180;11.400;2022-12-20T01:13:45;-0.70;99.90
48007;DHT22;33771;48.180;11.400;2022-12-20T01:16:17;-0.70;99.90
48007;DHT22;33771;48.180;11.400;2022-12-20T01:18:43;-0.70;99.90
48007;DHT22;33771;48.180;11.400;2022-12-20T01:21:11;-0.70;99.90
48007;DHT22;33771;48.180;11.400;2022-12-20T01:23:38;-0.70;99.90
48007;DHT22;33771;48.180;11.400;2022-12-20T01:26:05;-0.70;99.90
48007;DHT22;33771;48.180;11.400;2022-12-20T01:28:34;-0.70;99.90
48007;DHT22;33771;48.180;11.400;2022-12-20T01:31:00;-0.70;99.90
48007;DHT22;33771;48.180;11.400;2022-12-20T01:33:26;-0.70;99.90
48007;DHT22;33771;48.180;11.400;2022-12-20T01:35:59;-0.70;99.90
48007;DHT22;33771;48.180;11.400;2022-12-20T01:38:25;-0.70;99.90
48007;DHT22;33771;48.180;11.400;2022-12-20T01:40:51;-0.70;99.90
48007;DHT22;33771;48.180;11.400;2022-12-20T01:43:18;-0.70;99.90
48007;DHT22;33771;48.180;11.400;2022-12-20T01:45:44;-0.70;99.90
48007;DHT22;33771;48.180;11.400;2022-12-20T01:48:13;-0.70;99.90
48007;DHT22;33771;48.180;11.400;2022-12-20T01:50:40;-0.70;99.90
48007;DHT22;33771;48.180;11.400;2022-12-20T01:53:06;-0.70;99.90
48007;DHT22;33771;48.180;11.400;2022-12-20T01:55:31;-0.70;99.90
48007;DHT22;33771;48.180;11.400;2022-12-20T01:58:09;-0.70;99.90
48007;DHT22;33771;48.180;11.400;2022-12-20T02:00:36;-0.70;99.90
48007;DHT22;33771;48.180;11.400;2022-12-20T02:03:11;-0.70;99.90
48007;DHT22;33771;48.180;11.400;2022-12-20T02:05:39;-0.70;99.90
48007;DHT22;33771;48.180;11.400;2022-12-20T02:08:06;-0.80;99.90
48007;DHT22;33771;48.180;11.400;2022-12-20T02:13:40;-0.80;99.90
48007;DHT22;33771;48.180;11.400;2022-12-20T02:16:08;-0.80;99.90
48007;DHT22;33771;48.180;11.400;2022-12-20T02:18:43;-0.80;99.90
48007;DHT22;33771;48.180;11.400;2022-12-20T02:21:19;-0.80;99.90
48007;DHT22;33771;48.180;11.400;2022-12-20T02:30:02;-0.80;99.90
48007;DHT22;33771;48.180;11.400;2022-12-20T02:32:37;-0.80;99.90
48007;DHT22;33771;48.180;11.400;2022-12-20T02:35:05;-0.80;99.90
48007;DHT22;33771;48.180;11.400;2022-12-20T02:37:32;-0.80;99.90
48007;DHT22;33771;48.180;11.400;2022-12-20T02:39:57;-0.80;99.90
48007;DHT22;33771;48.180;11.400;2022-12-20T02:42:24;-0.80;99.90
48007;DHT22;33771;48.180;11.400;2022-12-20T02:44:59;-0.80;99.90
48007;DHT22;33771;48.180;11.400;2022-12-20T02:50:10;-0.70;99.90
48007;DHT22;33771;48.180;11.400;2022-12-20T02:52:37;-0.70;99.90
48007;DHT22;33771;48.180;11.400;2022-12-20T02:55:04;-0.70;99.90
48007;DHT22;33771;48.180;11.400;2022-12-20T02:58:04;-0.70;99.90
48007;DHT22;33771;48.180;11.400;2022-12-20T03:00:33;-0.60;99.90
48007;DHT22;33771;48.180;11.400;2022-12-20T03:03:03;-0.60;99.90
48007;DHT22;33771;48.180;11.400;2022-12-20T03:05:50;-0.60;99.90
48007;DHT22;33771;48.180;11.400;2022-12-20T03:08:16;-0.60;99.90
48007;DHT22;33771;48.180;11.400;2022-12-20T03:10:42;-0.60;99.90
48007;DHT22;33771;48.180;11.400;2022-12-20T03:13:08;-0.60;99.90
48007;DHT22;33771;48.180;11.400;2022-12-20T03:15:34;-0.60;99.90
48007;DHT22;33771;48.180;11.400;2022-12-20T03:18:00;-0.50;99.90
48007;DHT22;33771;48.180;11.400;2022-12-20T03:20:26;-0.50;99.90
48007;DHT22;33771;48.180;11.400;2022-12-20T03:22:51;-0.50;99.90
48007;DHT22;33771;48.180;11.400;2022-12-20T03:25:17;-0.50;99.90
48007;DHT22;33771;48.180;11.400;2022-12-20T03:27:43;-0.50;99.90
48007;DHT22;33771;48.180;11.400;2022-12-20T03:30:10;-0.50;99.90
48007;DHT22;33771;48.180;11.400;2022-12-20T03:32:35;-0.50;99.90
48007;DHT22;33771;48.180;11.400;2022-12-20T03:35:01;-0.50;99.90
48007;DHT22;33771;48.180;11.400;2022-12-20T03:37:27;-0.50;99.90
48007;DHT22;33771;48.180;11.400;2022-12-20T03:39:52;-0.50;99.90
48007;DHT22;33771;48.180;11.400;2022-12-20T03:42:18;-0.50;99.90
48007;DHT22;33771;48.180;11.400;2022-12-20T03:44:43;-0.50;99.90
48007;DHT22;33771;48.180;11.400;2022-12-20T03:47:09;-0.50;99.90
48007;DHT22;33771;48.180;11.400;2022-12-20T03:49:34;-0.50;99.90
48007;DHT22;33771;48.180;11.400;2022-12-20T03:52:00;-0.50;99.90
48007;DHT22;33771;48.180;11.400;2022-12-20T03:54:26;-0.50;99.90
48007;DHT22;33771;48.180;11.400;2022-12-20T03:56:51;-0.50;99.90
48007;DHT22;33771;48.180;11.400;2022-12-20T03:59:17;-0.50;99.90
48007;DHT22;33771;48.180;11.400;2022-12-20T04:01:43;-0.50;99.90
48007;DHT22;33771;48.180;11.400;2022-12-20T04:04:10;-0.50;99.90
48007;DHT22;33771;48.180;11.400;2022-12-20T04:06:36;-0.50;99.90
48007;DHT22;33771;48.180;11.400;2022-12-20T04:09:02;-0.50;99.90
48007;DHT22;33771;48.180;11.400;2022-12-20T04:11:28;-0.50;99.90
48007;DHT22;33771;48.180;11.400;2022-12-20T04:13:53;-0.50;99.90
48007;DHT22;33771;48.180;11.400;2022-12-20T04:16:22;-0.60;99.90
48007;DHT22;33771;48.180;11.400;2022-12-20T04:18:48;-0.60;99.90
48007;DHT22;33771;48.180;11.400;2022-12-20T04:21:13;-0.50;99.90
48007;DHT22;33771;48.180;11.400;2022-12-20T04:23:41;-0.50;99.90
48007;DHT22;33771;48.180;11.400;2022-12-20T04:26:08;-0.50;99.90
48007;DHT22;33771;48.180;11.400;2022-12-20T04:28:34;-0.50;99.90
48007;DHT22;33771;48.180;11.400;2022-12-20T04:31:00;-0.50;99.90
48007;DHT22;33771;48.180;11.400;2022-12-20T04:33:27;-0.50;99.90
48007;DHT22;33771;48.180;11.400;2022-12-20T04:35:53;-0.50;99.90
48007;DHT22;33771;48.180;11.400;2022-12-20T04:38:20;-0.50;99.90
48007;DHT22;33771;48.180;11.400;2022-12-20T04:40:51;-0.50;99.90
48007;DHT22;33771;48.180;11.400;2022-12-20T04:43:17;-0.50;99.90
48007;DHT22;33771;48.180;11.400;2022-12-20T04:45:44;-0.40;99.90
48007;DHT22;33771;48.180;11.400;2022-12-20T04:48:10;-0.50;99.90
48007;DHT22;33771;48.180;11.400;2022-12-20T04:50:36;-0.40;99.90
48007;DHT22;33771;48.180;11.400;2022-12-20T04:53:01;-0.40;99.90
48007;DHT22;33771;48.180;11.400;2022-12-20T04:55:46;-0.40;99.90
48007;DHT22;33771;48.180;11.400;2022-12-20T04:58:11;-0.40;99.90
48007;DHT22;33771;48.180;11.400;2022-12-20T05:00:37;-0.40;99.90
48007;DHT22;33771;48.180;11.400;2022-12-20T05:03:02;-0.40;99.90
48007;DHT22;33771;48.180;11.400;2022-12-20T05:05:28;-0.40;99.90
48007;DHT22;33771;48.180;11.400;2022-12-20T05:07:54;-0.30;99.90
48007;DHT22;33771;48.180;11.400;2022-12-20T05:10:20;-0.30;99.90
48007;DHT22;33771;48.180;11.400;2022-12-20T05:12:45;-0.30;99.90
48007;DHT22;33771;48.180;11.400;2022-12-20T05:15:11;-0.30;99.90
48007;DHT22;33771;48.180;11.400;2022-12-20T05:17:37;-0.30;99.90
48007;DHT22;33771;48.180;11.400;2022-12-20T05:20:03;-0.30;99.90
48007;DHT22;33771;48.180;11.400;2022-12-20T05:22:29;-0.30;99.90
48007;DHT22;33771;48.180;11.400;2022-12-20T05:25:13;-0.20;99.90
48007;DHT22;33771;48.180;11.400;2022-12-20T05:27:57;-0.20;99.90
48007;DHT22;33771;48.180;11.400;2022-12-20T05:30:24;-0.20;99.90
48007;DHT22;33771;48.180;11.400;2022-12-20T05:32:50;-0.10;99.90
48007;DHT22;33771;48.180;11.400;2022-12-20T05:35:15;-0.10;99.90
48007;DHT22;33771;48.180;11.400;2022-12-20T05:37:41;-0.10;99.90
48007;DHT22;33771;48.180;11.400;2022-12-20T05:40:08;-0.20;99.90
48007;DHT22;33771;48.180;11.400;2022-12-20T05:42:33;-0.20;99.90
48007;DHT22;33771;48.180;11.400;2022-12-20T05:44:59;-0.20;99.90
48007;DHT22;33771;48.180;11.400;2022-12-20T05:47:28;-0.20;99.90
48007;DHT22;33771;48.180;11.400;2022-12-20T05:49:55;-0.20;99.90
48007;DHT22;33771;48.180;11.400;2022-12-20T05:52:20;-0.20;99.90
48007;DHT22;33771;48.180;11.400;2022-12-20T05:54:46;-0.20;99.90
48007;DHT22;33771;48.180;11.400;2022-12-20T05:57:11;-0.20;99.90
48007;DHT22;33771;48.180;11.400;2022-12-20T05:59:38;-0.30;99.90
48007;DHT22;33771;48.180;11.400;2022-12-20T06:02:05;-0.30;99.90
48007;DHT22;33771;48.180;11.400;2022-12-20T06:04:31;-0.30;99.90
48007;DHT22;33771;48.180;11.400;2022-12-20T06:06:56;-0.40;99.90
48007;DHT22;33771;48.180;11.400;2022-12-20T06:09:23;-0.40;99.90
48007;DHT22;33771;48.180;11.400;2022-12-20T06:11:49;-0.40;99.90
48007;DHT22;33771;48.180;11.400;2022-12-20T06:14:14;-0.40;99.90
48007;DHT22;33771;48.180;11.400;2022-12-20T06:16:40;-0.40;99.90
48007;DHT22;33771;48.180;11.400;2022-12-20T06:19:06;-0.40;99.90
48007;DHT22;33771;48.180;11.400;2022-12-20T06:21:32;-0.40;99.90
48007;DHT22;33771;48.180;11.400;2022-12-20T06:23:57;-0.40;99.90
48007;DHT22;33771;48.180;11.400;2022-12-20T06:26:23;-0.40;99.90
48007;DHT22;33771;48.180;11.400;2022-12-20T06:28:49;-0.40;99.90
48007;DHT22;33771;48.180;11.400;2022-12-20T06:31:17;-0.40;99.90
48007;DHT22;33771;48.180;11.400;2022-12-20T06:33:42;-0.40;99.90
48007;DHT22;33771;48.180;11.400;2022-12-20T06:36:09;-0.40;99.90
48007;DHT22;33771;48.180;11.400;2022-12-20T06:38:34;-0.40;99.90
48007;DHT22;33771;48.180;11.400;2022-12-20T06:41:00;-0.40;99.90
48007;DHT22;33771;48.180;11.400;2022-12-20T06:43:25;-0.40;99.90
48007;DHT22;33771;48.180;11.400;2022-12-20T06:45:51;-0.40;99.90
48007;DHT22;33771;48.180;11.400;2022-12-20T06:48:16;-0.40;99.90
48007;DHT22;33771;48.180;11.400;2022-12-20T06:50:42;-0.40;99.90
48007;DHT22;33771;48.180;11.400;2022-12-20T06:53:08;-0.40;99.90
48007;DHT22;33771;48.180;11.400;2022-12-20T06:55:33;-0.40;99.90
48007;DHT22;33771;48.180;11.400;2022-12-20T06:57:59;-0.40;99.90
48007;DHT22;33771;48.180;11.400;2022-12-20T07:00:25;-0.40;99.90
48007;DHT22;33771;48.180;11.400;2022-12-20T07:02:51;-0.30;99.90
48007;DHT22;33771;48.180;11.400;2022-12-20T07:05:17;-0.30;99.90
48007;DHT22;33771;48.180;11.400;2022-12-20T07:07:42;-0.30;99.90
48007;DHT22;33771;48.180;11.400;2022-12-20T07:10:08;-0.30;99.90
48007;DHT22;33771;48.180;11.400;2022-12-20T07:12:34;-0.20;99.90
48007;DHT22;33771;48.180;11.400;2022-12-20T07:15:00;-0.20;99.90
48007;DHT22;33771;48.180;11.400;2022-12-20T07:17:28;-0.20;99.90
48007;DHT22;33771;48.180;11.400;2022-12-20T07:19:54;-0.20;99.90
48007;DHT22;33771;48.180;11.400;2022-12-20T07:22:20;-0.20;99.90
48007;DHT22;33771;48.180;11.400;2022-12-20T07:24:45;-0.20;99.90
48007;DHT22;33771;48.180;11.400;2022-12-20T07:27:12;-0.20;99.90
48007;DHT22;33771;48.180;11.400;2022-12-20T07:29:38;-0.10;99.90
48007;DHT22;33771;48.180;11.400;2022-12-20T07:32:06;-0.10;99.90
48007;DHT22;33771;48.180;11.400;2022-12-20T07:34:32;-0.10;99.90
48007;DHT22;33771;48.180;11.400;2022-12-20T07:36:57;-0.20;99.90
48007;DHT22;33771;48.180;11.400;2022-12-20T07:39:23;-0.10;99.90
48007;DHT22;33771;48.180;11.400;2022-12-20T07:41:55;0.00;99.90
48007;DHT22;33771;48.180;11.400;2022-12-20T07:44:33;0.00;99.90
48007;DHT22;33771;48.180;11.400;2022-12-20T07:47:01;0.10;99.90
48007;DHT22;33771;48.180;11.400;2022-12-20T07:49:28;0.10;99.90
48007;DHT22;33771;48.180;11.400;2022-12-20T07:51:58;0.20;99.90
48007;DHT22;33771;48.180;11.400;2022-12-20T07:54:29;0.20;99.90
48007;DHT22;33771;48.180;11.400;2022-12-20T07:56:58;0.20;99.90
48007;DHT22;33771;48.180;11.400;2022-12-20T07:59:35;0.30;99.90
48007;DHT22;33771;48.180;11.400;2022-12-20T08:02:03;0.30;99.90
48007;DHT22;33771;48.180;11.400;2022-12-20T08:04:29;0.40;99.90
48007;DHT22;33771;48.180;11.400;2022-12-20T08:06:58;0.40;99.90
48007;DHT22;33771;48.180;11.400;2022-12-20T08:09:27;0.40;99.90
48007;DHT22;33771;48.180;11.400;2022-12-20T08:11:57;0.50;99.90
48007;DHT22;33771;48.180;11.400;2022-12-20T08:14:23;0.50;99.90
48007;DHT22;33771;48.180;11.400;2022-12-20T08:16:49;0.60;99.90
48007;DHT22;33771;48.180;11.400;2022-12-20T08:19:15;0.60;99.90
48007;DHT22;33771;48.180;11.400;2022-12-20T08:21:40;0.60;99.90
48007;DHT22;33771;48.180;11.400;2022-12-20T08:24:07;0.70;99.90
48007;DHT22;33771;48.180;11.400;2022-12-20T08:26:39;0.70;99.90
48007;DHT22;33771;48.180;11.400;2022-12-20T08:29:04;0.80;99.90
48007;DHT22;33771;48.180;11.400;2022-12-20T08:31:30;0.80;99.90
48007;DHT22;33771;48.180;11.400;2022-12-20T08:34:05;0.90;99.90
48007;DHT22;33771;48.180;11.400;2022-12-20T08:36:31;0.90;99.90
48007;DHT22;33771;48.180;11.400;2022-12-20T08:38:56;0.90;99.90
48007;DHT22;33771;48.180;11.400;2022-12-20T08:41:22;0.90;99.90
48007;DHT22;33771;48.180;11.400;2022-12-20T08:43:48;1.00;99.90
48007;DHT22;33771;48.180;11.400;2022-12-20T08:46:13;1.00;99.90
48007;DHT22;33771;48.180;11.400;2022-12-20T08:48:39;1.00;99.90
48007;DHT22;33771;48.180;11.400;2022-12-20T08:51:07;1.10;99.90
48007;DHT22;33771;48.180;11.400;2022-12-20T08:53:34;1.10;99.90
48007;DHT22;33771;48.180;11.400;2022-12-20T08:56:07;1.10;99.90
48007;DHT22;33771;48.180;11.400;2022-12-20T08:58:34;1.20;99.90
48007;DHT22;33771;48.180;11.400;2022-12-20T09:01:02;1.30;99.90
48007;DHT22;33771;48.180;11.400;2022-12-20T09:03:32;1.40;99.90
48007;DHT22;33771;48.180;11.400;2022-12-20T09:05:58;1.50;99.90
48007;DHT22;33771;48.180;11.400;2022-12-20T09:08:25;1.50;99.90
48007;DHT22;33771;48.180;11.400;2022-12-20T09:10:50;1.60;99.90
48007;DHT22;33771;48.180;11.400;2022-12-20T09:13:16;1.70;99.90
48007;DHT22;33771;48.180;11.400;2022-12-20T09:15:42;1.80;99.90
48007;DHT22;33771;48.180;11.400;2022-12-20T09:18:09;1.90;99.90
48007;DHT22;33771;48.180;11.400;2022-12-20T09:20:35;2.00;99.90
48007;DHT22;33771;48.180;11.400;2022-12-20T09:23:01;2.10;99.90
48007;DHT22;33771;48.180;11.400;2022-12-20T09:25:27;2.20;99.90
48007;DHT22;33771;48.180;11.400;2022-12-20T09:27:53;2.20;99.90
48007;DHT22;33771;48.180;11.400;2022-12-20T09:30:21;2.20;99.90
48007;DHT22;33771;48.180;11.400;2022-12-20T09:32:47;2.30;99.90
48007;DHT22;33771;48.180;11.400;2022-12-20T09:35:12;2.30;99.90
48007;DHT22;33771;48.180;11.400;2022-12-20T09:37:38;2.40;99.90
48007;DHT22;33771;48.180;11.400;2022-12-20T09:40:04;2.40;99.90
48007;DHT22;33771;48.180;11.400;2022-12-20T09:42:30;2.40;99.90
48007;DHT22;33771;48.180;11.400;2022-12-20T09:45:11;2.50;99.90
48007;DHT22;33771;48.180;11.400;2022-12-20T09:47:39;2.50;99.90
48007;DHT22;33771;48.180;11.400;2022-12-20T09:50:06;2.40;99.90
48007;DHT22;33771;48.180;11.400;2022-12-20T09:52:54;2.40;99.90
48007;DHT22;33771;48.180;11.400;2022-12-20T09:55:39;2.40;99.90
48007;DHT22;33771;48.180;11.400;2022-12-20T10:00:49;2.50;99.90
48007;DHT22;33771;48.180;11.400;2022-12-20T10:03:30;2.50;99.90
48007;DHT22;33771;48.180;11.400;2022-12-20T10:09:04;2.60;99.90
48007;DHT22;33771;48.180;11.400;2022-12-20T10:11:54;2.70;99.90
48007;DHT22;33771;48.180;11.400;2022-12-20T10:14:42;2.70;99.90
48007;DHT22;33771;48.180;11.400;2022-12-20T10:17:16;2.70;99.90
48007;DHT22;33771;48.180;11.400;2022-12-20T10:19:58;2.70;99.90
48007;DHT22;33771;48.180;11.400;2022-12-20T10:25:19;2.80;99.90
48007;DHT22;33771;48.180;11.400;2022-12-20T10:27:46;2.80;99.90
48007;DHT22;33771;48.180;11.400;2022-12-20T10:30:15;2.90;99.90
48007;DHT22;33771;48.180;11.400;2022-12-20T10:32:44;2.90;99.90
48007;DHT22;33771;48.180;11.400;2022-12-20T10:37:36;3.00;99.90
48007;DHT22;33771;48.180;11.400;2022-12-20T10:40:02;3.00;99.90
48007;DHT22;33771;48.180;11.400;2022-12-20T10:42:39;3.00;99.90
48007;DHT22;33771;48.180;11.400;2022-12-20T10:47:44;3.10;99.90
48007;DHT22;33771;48.180;11.400;2022-12-20T10:50:16;3.00;99.90
48007;DHT22;33771;48.180;11.400;2022-12-20T10:52:43;3.00;99.90
48007;DHT22;33771;48.180;11.400;2022-12-20T10:55:31;3.00;99.90
48007;DHT22;33771;48.180;11.400;2022-12-20T10:58:02;3.00;99.90
48007;DHT22;33771;48.180;11.400;2022-12-20T11:00:29;3.00;99.90
48007;DHT22;33771;48.180;11.400;2022-12-20T11:03:23;3.00;99.90
48007;DHT22;33771;48.180;11.400;2022-12-20T11:05:57;3.00;99.90
48007;DHT22;33771;48.180;11.400;2022-12-20T11:08:25;3.10;99.90
48007;DHT22;33771;48.180;11.400;2022-12-20T11:11:16;3.10;99.90
48007;DHT22;33771;48.180;11.400;2022-12-20T11:13:44;3.10;99.90
48007;DHT22;33771;48.180;11.400;2022-12-20T11:16:27;3.10;99.90
48007;DHT22;33771;48.180;11.400;2022-12-20T11:33:40;3.20;99.90
48007;DHT22;33771;48.180;11.400;2022-12-20T11:39:18;3.50;99.90
48007;DHT22;33771;48.180;11.400;2022-12-20T11:42:01;3.60;99.90
48007;DHT22;33771;48.180;11.400;2022-12-20T11:44:45;3.70;99.90
48007;DHT22;33771;48.180;11.400;2022-12-20T11:47:42;3.80;99.90
48007;DHT22;33771;48.180;11.400;2022-12-20T11:52:57;4.00;99.90
48007;DHT22;33771;48.180;11.400;2022-12-20T11:55:31;4.00;99.90
48007;DHT22;33771;48.180;11.400;2022-12-20T11:58:17;4.00;99.90
48007;DHT22;33771;48.180;11.400;2022-12-20T12:00:59;4.00;99.90
48007;DHT22;33771;48.180;11.400;2022-12-20T12:03:31;4.00;99.90
48007;DHT22;33771;48.180;11.400;2022-12-20T12:06:06;4.00;99.90
48007;DHT22;33771;48.180;11.400;2022-12-20T12:08:47;3.90;99.90
48007;DHT22;33771;48.180;11.400;2022-12-20T12:11:24;3.90;99.90
48007;DHT22;33771;48.180;11.400;2022-12-20T12:13:51;3.90;99.90
48007;DHT22;33771;48.180;11.400;2022-12-20T12:16:39;3.80;99.90
48007;DHT22;33771;48.180;11.400;2022-12-20T12:19:11;3.80;99.90
48007;DHT22;33771;48.180;11.400;2022-12-20T12:21:49;3.70;99.90
48007;DHT22;33771;48.180;11.400;2022-12-20T12:24:51;3.70;99.90
48007;DHT22;33771;48.180;11.400;2022-12-20T12:27:27;3.70;99.90
48007;DHT22;33771;48.180;11.400;2022-12-20T12:29:53;3.70;99.90
48007;DHT22;33771;48.180;11.400;2022-12-20T12:33:01;3.60;99.90
48007;DHT22;33771;48.180;11.400;2022-12-20T12:35:56;3.60;99.90
48007;DHT22;33771;48.180;11.400;2022-12-20T12:38:35;3.70;99.90
48007;DHT22;33771;48.180;11.400;2022-12-20T12:43:52;3.70;99.90
48007;DHT22;33771;48.180;11.400;2022-12-20T12:49:05;3.70;99.90
48007;DHT22;33771;48.180;11.400;2022-12-20T12:51:35;3.70;99.90
48007;DHT22;33771;48.180;11.400;2022-12-20T12:54:28;3.60;99.90
48007;DHT22;33771;48.180;11.400;2022-12-20T12:57:20;3.60;99.90
48007;DHT22;33771;48.180;11.400;2022-12-20T12:59:48;3.50;99.90
48007;DHT22;33771;48.180;11.400;2022-12-20T13:04:58;3.50;99.90
48007;DHT22;33771;48.180;11.400;2022-12-20T13:07:28;3.40;99.90
48007;DHT22;33771;48.180;11.400;2022-12-20T13:20:22;3.30;99.90
48007;DHT22;33771;48.180;11.400;2022-12-20T13:25:47;3.30;99.90
48007;DHT22;33771;48.180;11.400;2022-12-20T13:38:54;3.40;99.90
48007;DHT22;33771;48.180;11.400;2022-12-20T13:41:30;3.40;99.90
48007;DHT22;33771;48.180;11.400;2022-12-20T13:46:51;3.30;99.90
48007;DHT22;33771;48.180;11.400;2022-12-20T13:49:33;3.20;99.90
48007;DHT22;33771;48.180;11.400;2022-12-20T13:54:43;3.10;99.90
48007;DHT22;33771;48.180;11.400;2022-12-20T13:57:22;3.10;99.90
48007;DHT22;33771;48.180;11.400;2022-12-20T13:59:53;3.20;99.90
48007;DHT22;33771;48.180;11.400;2022-12-20T14:02:33;3.20;99.90
48007;DHT22;33771;48.180;11.400;2022-12-20T14:05:05;3.20;99.90
48007;DHT22;33771;48.180;11.400;2022-12-20T14:07:34;3.20;99.90
48007;DHT22;33771;48.180;11.400;2022-12-20T14:10:11;3.30;99.90
48007;DHT22;33771;48.180;11.400;2022-12-20T14:12:44;3.30;99.90
48007;DHT22;33771;48.180;11.400;2022-12-20T14:15:25;3.50;99.90
48007;DHT22;33771;48.180;11.400;2022-12-20T14:17:51;3.50;99.90
48007;DHT22;33771;48.180;11.400;2022-12-20T14:20:38;3.50;99.90
48007;DHT22;33771;48.180;11.400;2022-12-20T14:23:11;3.50;99.90
48007;DHT22;33771;48.180;11.400;2022-12-20T14:25:55;3.50;99.90
48007;DHT22;33771;48.180;11.400;2022-12-20T14:28:40;3.40;99.90
48007;DHT22;33771;48.180;11.400;2022-12-20T14:34:05;3.30;99.90
48007;DHT22;33771;48.180;11.400;2022-12-20T14:36:37;3.30;99.90
48007;DHT22;33771;48.180;11.400;2022-12-20T14:39:23;3.20;99.90
48007;DHT22;33771;48.180;11.400;2022-12-20T14:41:57;3.20;99.90
48007;DHT22;33771;48.180;11.400;2022-12-20T14:44:24;3.10;99.90
48007;DHT22;33771;48.180;11.400;2022-12-20T14:46:52;3.10;99.90
48007;DHT22;33771;48.180;11.400;2022-12-20T14:49:32;3.00;99.90
48007;DHT22;33771;48.180;11.400;2022-12-20T14:52:26;3.00;99.90
48007;DHT22;33771;48.180;11.400;2022-12-20T14:57:37;2.80;99.90
48007;DHT22;33771;48.180;11.400;2022-12-20T15:00:19;2.80;99.90
48007;DHT22;33771;48.180;11.400;2022-12-20T15:02:55;2.70;99.90
48007;DHT22;33771;48.180;11.400;2022-12-20T15:05:37;2.60;99.90
48007;DHT22;33771;48.180;11.400;2022-12-20T15:08:21;2.50;99.90
48007;DHT22;33771;48.180;11.400;2022-12-20T15:13:17;2.40;99.90
48007;DHT22;33771;48.180;11.400;2022-12-20T15:15:43;2.30;99.90
48007;DHT22;33771;48.180;11.400;2022-12-20T15:20:39;2.20;99.90
48007;DHT22;33771;48.180;11.400;2022-12-20T15:23:04;2.20;99.90
48007;DHT22;33771;48.180;11.400;2022-12-20T15:25:33;2.20;99.90
48007;DHT22;33771;48.180;11.400;2022-12-20T15:28:01;2.10;99.90
48007;DHT22;33771;48.180;11.400;2022-12-20T15:30:26;2.10;99.90
48007;DHT22;33771;48.180;11.400;2022-12-20T15:32:52;2.10;99.90
48007;DHT22;33771;48.180;11.400;2022-12-20T15:35:17;2.10;99.90
48007;DHT22;33771;48.180;11.400;2022-12-20T15:37:43;2.10;99.90
48007;DHT22;33771;48.180;11.400;2022-12-20T15:40:12;2.00;99.90
48007;DHT22;33771;48.180;11.400;2022-12-20T15:42:41;2.00;99.90
48007;DHT22;33771;48.180;11.400;2022-12-20T15:45:14;2.00;99.90
48007;DHT22;33771;48.180;11.400;2022-12-20T15:47:40;1.90;99.90
48007;DHT22;33771;48.180;11.400;2022-12-20T15:50:06;1.90;99.90
48007;DHT22;33771;48.180;11.400;2022-12-20T15:52:31;1.90;99.90
48007;DHT22;33771;48.180;11.400;2022-12-20T15:54:57;1.90;99.90
48007;DHT22;33771;48.180;11.400;2022-12-20T15:57:23;1.80;99.90
48007;DHT22;33771;48.180;11.400;2022-12-20T15:59:48;1.80;99.90
48007;DHT22;33771;48.180;11.400;2022-12-20T16:02:26;1.80;99.90
48007;DHT22;33771;48.180;11.400;2022-12-20T16:04:53;1.80;99.90
48007;DHT22;33771;48.180;11.400;2022-12-20T16:07:19;1.70;99.90
48007;DHT22;33771;48.180;11.400;2022-12-20T16:09:45;1.80;99.90
48007;DHT22;33771;48.180;11.400;2022-12-20T16:12:31;1.70;99.90
48007;DHT22;33771;48.180;11.400;2022-12-20T16:14:57;1.70;99.90
48007;DHT22;33771;48.180;11.400;2022-12-20T16:17:23;1.70;99.90
48007;DHT22;33771;48.180;11.400;2022-12-20T16:19:49;1.70;99.90
48007;DHT22;33771;48.180;11.400;2022-12-20T16:22:17;1.60;99.90
48007;DHT22;33771;48.180;11.400;2022-12-20T16:24:43;1.60;99.90
48007;DHT22;33771;48.180;11.400;2022-12-20T16:27:09;1.60;99.90
48007;DHT22;33771;48.180;11.400;2022-12-20T16:29:35;1.60;99.90
48007;DHT22;33771;48.180;11.400;2022-12-20T16:32:00;1.60;99.90
48007;DHT22;33771;48.180;11.400;2022-12-20T16:34:26;1.50;99.90
48007;DHT22;33771;48.180;11.400;2022-12-20T16:36:51;1.60;99.90
48007;DHT22;33771;48.180;11.400;2022-12-20T16:39:17;1.50;99.90
48007;DHT22;33771;48.180;11.400;2022-12-20T16:41:42;1.50;99.90
48007;DHT22;33771;48.180;11.400;2022-12-20T16:44:13;1.50;99.90
48007;DHT22;33771;48.180;11.400;2022-12-20T16:46:40;1.50;99.90
48007;DHT22;33771;48.180;11.400;2022-12-20T16:49:05;1.50;99.90
48007;DHT22;33771;48.180;11.400;2022-12-20T16:51:39;1.50;99.90
48007;DHT22;33771;48.180;11.400;2022-12-20T16:54:21;1.50;99.90
48007;DHT22;33771;48.180;11.400;2022-12-20T16:56:48;1.50;99.90
48007;DHT22;33771;48.180;11.400;2022-12-20T16:59:24;1.50;99.90
48007;DHT22;33771;48.180;11.400;2022-12-20T17:01:51;1.50;99.90
48007;DHT22;33771;48.180;11.400;2022-12-20T17:04:18;1.50;99.90
48007;DHT22;33771;48.180;11.400;2022-12-20T17:06:44;1.50;99.90
48007;DHT22;33771;48.180;11.400;2022-12-20T17:09:11;1.50;99.90
48007;DHT22;33771;48.180;11.400;2022-12-20T17:11:39;1.50;99.90
48007;DHT22;33771;48.180;11.400;2022-12-20T17:14:05;1.50;99.90